Kaweah, California
Current Conditions -  °F | °C
As of 5:55 AM on Wednesday 26 Nov 2014 (Local Time) from KVIS Reporting Station
Clear Clear  
Wind Chill: 39°   Ceiling: Unl
Heat Index: 39°   Visibility: 2mi
Dew Point: 36°   Wind: 3mph
Humidity: 87%   Direction: 110°ESE
Pressure: 30.34"   Gusts: NA
Location:  36.47°N, 118.92°W
Report Text: KVIS 261355Z 11003KT 2SM CLR 04/02 A3034 RMK AO1
Loading
Personal Weather Stations






























Interactive Weather Map New forecast layout! Learn more

10-Day Weather Forecast

Advertisements
Track Severe Weather on mobile